Nenana Municipal Airport
PANN : now visible

Airfield :











YOU CAN JOIN US ON...

 
LOGIN :

Register | Disclaimer

   EN    FR    IT 

 









Legend :    VFR   Marginal VFR   IFR   Intensive IFR   Very Intensive IFR
Visi :
Ceiling :
>= 8 km
>= 3000ft
5 to 8 km
1000 to 3000 ft
1500m to 5 km
500 to 1000 ft
800 to 1500m
200 to 500 ft
< 800m
< 200 ft
Symbols :   Thunderstorms  Fog  Heavy snow  Heavy precipitations  Wind > 20 kt






- Airport Elevation : 362 ft
- IATA code : ENN


PANN - Nenana Municipal

CURRENT METAR :
  • 091253Z AUTO VRB04KT 10SM BKN043 M07/M14 A3023 RMK AO2 SLP249 T10721139 TSNO

EXPIRED METARs :
  • 091233Z AUTO VRB05KT 9SM SCT030 OVC041 M07/M13 A3022 RMK AO2 T10671133 TSNO
  • 091223Z AUTO VRB06KT 10SM BKN029 OVC041 M07/M13 A3022 RMK AO2 T10671133 TSNO
  • 091153Z AUTO 25005KT 10SM OVC044 M07/M13 A3020 RMK AO2 SLP236 60000 T10671128 11033 21089 51036 TSNO
  • 091053Z AUTO VRB06KT 10SM BKN043 M06/M12 A3017 RMK AO2 SLP227 T10611117 TSNO

TAF N/A



MET'MAP, your aeronautical weather chart ! - Copyright ORBIFLY December 2007 - Disclaimer

ORBIFLY MET'MAP TEAM :

Programming & Development : Alexandra Zaïnal
Concept & original design : Baudouin d'Aumeries
Assistance for programming : Marc-Olivier Méhu
Technical & hardware support : Manuel Goepfert

Contact : metmap@orbifly.com




SOURCES & CREDITS :

   NOAA       Earth
Advisory